Strona główna
METAR-TAF:

METAR-TAF

Lotnisko :

Mitchell Municipal Airport

Mitchell, Dakota Południowa, Stany Zjednoczone

Szerokość geograficzna: 43-46N, Długość geograficzna: 098-02W, wysokość: 397 m

Aktualna obserwacja pogody

Raport powstał 42 minut temu, godzina 04:53 UTC
Wiatr 12 kt od zachodnio-południowy zachód w porywach dochodzący do 19 kt
Temperatura 7°C
Wilgotność 57%
Ciśnienie 1018 hPa
Widzialność: 16.1 km
bezchmurnie

METAR: KMHE 160453Z AUTO 25012G19KT 10SM CLR 07/M01 A3007 RMK AO2 SLP189 T00721011

czas: 00:35 (05:35 UTC)


TAF: brakujący

Obserwacja i prognoza pogody dla ponad 4000 lotnisk (raport METAR i TAF).

Dostępne stacje oznaczono żółtymi i czerwonymi punktami na mapie.

Najedź kursorem aby zobaczyć nazwę stacji.

Kliknij aby zobaczyć obserwacje i prognozy pogody.

Aby zmienić mapę: kliknij na zielony przycisk z czarnym krzyżykiem, aby powiększyć; na zielony przycisk z myślnikiem, aby pomniejszyć; na zielone strzałki, aby przejść do map sąsiednich.


METAR-TAF: